Acosta, Pennsylvania
Current Conditions -  °F | °C
As of 1:15 AM on Monday 26 Jan 2015 (Local Time) from K2G9 Reporting Station
Light Snow Light Snow  
Wind Chill: 23°   Ceiling: 400
Heat Index: 30°   Visibility: 2mi
Dew Point: 30°   Wind: 8mph
Humidity: 100%   Direction: 110°ESE
Pressure: 29.71"   Gusts: NA
Location:  40.11°N, 79.07°W
Report Text: K2G9 260615Z AUTO 11007KT 2SM -SN OVC004 M01/M01 A2971 RMK AO2 P0001
Loading
Personal Weather Stations






























Interactive Weather Map New forecast layout! Learn more

10-Day Weather Forecast

Advertisements
Track Severe Weather on mobile